sensor_id;sensor_type;location;lat;lon;timestamp;P1;durP1;ratioP1;P2;durP2;ratioP2
5456;SDS011;2751;49.802;9.944;2022-12-18T00:01:52;24.73;;;17.10;;
5456;SDS011;2751;49.802;9.944;2022-12-18T00:04:21;26.97;;;16.00;;
5456;SDS011;2751;49.802;9.944;2022-12-18T00:06:49;29.27;;;16.33;;
5456;SDS011;2751;49.802;9.944;2022-12-18T00:09:17;16.37;;;10.20;;
5456;SDS011;2751;49.802;9.944;2022-12-18T00:11:44;24.77;;;15.20;;
5456;SDS011;2751;49.802;9.944;2022-12-18T00:14:11;34.67;;;17.37;;
5456;SDS011;2751;49.802;9.944;2022-12-18T00:16:39;42.13;;;17.30;;
5456;SDS011;2751;49.802;9.944;2022-12-18T00:19:08;27.73;;;15.13;;
5456;SDS011;2751;49.802;9.944;2022-12-18T00:21:38;27.17;;;13.97;;
5456;SDS011;2751;49.802;9.944;2022-12-18T00:24:05;26.50;;;17.13;;
5456;SDS011;2751;49.802;9.944;2022-12-18T00:26:33;33.50;;;17.80;;
5456;SDS011;2751;49.802;9.944;2022-12-18T00:29:02;35.23;;;16.73;;
5456;SDS011;2751;49.802;9.944;2022-12-18T00:31:30;30.57;;;16.63;;
5456;SDS011;2751;49.802;9.944;2022-12-18T00:33:58;30.03;;;16.70;;
5456;SDS011;2751;49.802;9.944;2022-12-18T00:36:26;28.33;;;15.47;;
5456;SDS011;2751;49.802;9.944;2022-12-18T00:38:56;29.70;;;17.17;;
5456;SDS011;2751;49.802;9.944;2022-12-18T00:41:23;25.27;;;10.63;;
5456;SDS011;2751;49.802;9.944;2022-12-18T00:44:09;26.27;;;15.37;;
5456;SDS011;2751;49.802;9.944;2022-12-18T00:46:37;25.60;;;14.63;;
5456;SDS011;2751;49.802;9.944;2022-12-18T00:49:05;30.00;;;15.03;;
5456;SDS011;2751;49.802;9.944;2022-12-18T00:51:33;26.70;;;15.63;;
5456;SDS011;2751;49.802;9.944;2022-12-18T00:54:01;28.73;;;17.33;;
5456;SDS011;2751;49.802;9.944;2022-12-18T00:56:30;24.17;;;14.20;;
5456;SDS011;2751;49.802;9.944;2022-12-18T00:58:57;27.00;;;15.07;;
5456;SDS011;2751;49.802;9.944;2022-12-18T01:01:24;26.67;;;15.00;;
5456;SDS011;2751;49.802;9.944;2022-12-18T01:03:50;26.43;;;16.47;;
5456;SDS011;2751;49.802;9.944;2022-12-18T01:06:17;23.57;;;13.20;;
5456;SDS011;2751;49.802;9.944;2022-12-18T01:08:46;27.13;;;15.30;;
5456;SDS011;2751;49.802;9.944;2022-12-18T01:11:15;28.30;;;14.63;;
5456;SDS011;2751;49.802;9.944;2022-12-18T01:13:44;32.50;;;16.30;;
5456;SDS011;2751;49.802;9.944;2022-12-18T01:16:12;26.17;;;16.03;;
5456;SDS011;2751;49.802;9.944;2022-12-18T01:18:40;23.97;;;15.83;;
5456;SDS011;2751;49.802;9.944;2022-12-18T01:21:07;30.70;;;15.93;;
5456;SDS011;2751;49.802;9.944;2022-12-18T01:23:35;37.13;;;22.00;;
5456;SDS011;2751;49.802;9.944;2022-12-18T01:26:06;33.23;;;17.37;;
5456;SDS011;2751;49.802;9.944;2022-12-18T01:28:35;31.20;;;17.40;;
5456;SDS011;2751;49.802;9.944;2022-12-18T01:31:09;26.47;;;16.03;;
5456;SDS011;2751;49.802;9.944;2022-12-18T01:33:37;25.70;;;14.87;;
5456;SDS011;2751;49.802;9.944;2022-12-18T01:36:04;30.03;;;17.13;;
5456;SDS011;2751;49.802;9.944;2022-12-18T01:38:31;22.00;;;12.90;;
5456;SDS011;2751;49.802;9.944;2022-12-18T01:40:58;20.77;;;11.90;;
5456;SDS011;2751;49.802;9.944;2022-12-18T01:46:19;24.70;;;12.83;;
5456;SDS011;2751;49.802;9.944;2022-12-18T01:48:51;26.77;;;12.13;;
5456;SDS011;2751;49.802;9.944;2022-12-18T01:51:21;20.20;;;12.97;;
5456;SDS011;2751;49.802;9.944;2022-12-18T01:53:49;17.53;;;11.07;;
5456;SDS011;2751;49.802;9.944;2022-12-18T01:56:16;19.03;;;11.30;;
5456;SDS011;2751;49.802;9.944;2022-12-18T01:58:48;18.53;;;10.67;;
5456;SDS011;2751;49.802;9.944;2022-12-18T02:01:21;19.70;;;10.90;;
5456;SDS011;2751;49.802;9.944;2022-12-18T02:03:49;17.47;;;10.10;;
5456;SDS011;2751;49.802;9.944;2022-12-18T02:06:19;21.27;;;12.03;;
5456;SDS011;2751;49.802;9.944;2022-12-18T02:08:54;21.90;;;12.87;;
5456;SDS011;2751;49.802;9.944;2022-12-18T02:11:36;21.60;;;12.77;;
5456;SDS011;2751;49.802;9.944;2022-12-18T02:14:16;22.73;;;12.93;;
5456;SDS011;2751;49.802;9.944;2022-12-18T02:16:52;19.53;;;10.93;;
5456;SDS011;2751;49.802;9.944;2022-12-18T02:19:31;19.33;;;11.50;;
5456;SDS011;2751;49.802;9.944;2022-12-18T02:22:12;21.83;;;12.30;;
5456;SDS011;2751;49.802;9.944;2022-12-18T02:24:54;17.77;;;10.40;;
5456;SDS011;2751;49.802;9.944;2022-12-18T02:27:43;19.37;;;9.63;;
5456;SDS011;2751;49.802;9.944;2022-12-18T02:30:13;18.27;;;11.20;;
5456;SDS011;2751;49.802;9.944;2022-12-18T02:32:42;21.00;;;12.37;;
5456;SDS011;2751;49.802;9.944;2022-12-18T02:35:15;23.70;;;12.20;;
5456;SDS011;2751;49.802;9.944;2022-12-18T02:37:46;22.00;;;13.63;;
5456;SDS011;2751;49.802;9.944;2022-12-18T02:40:14;25.67;;;14.70;;
5456;SDS011;2751;49.802;9.944;2022-12-18T02:42:43;23.00;;;14.87;;
5456;SDS011;2751;49.802;9.944;2022-12-18T02:45:10;24.27;;;13.80;;
5456;SDS011;2751;49.802;9.944;2022-12-18T02:47:38;25.07;;;13.53;;
5456;SDS011;2751;49.802;9.944;2022-12-18T02:50:10;17.27;;;10.30;;
5456;SDS011;2751;49.802;9.944;2022-12-18T02:52:46;17.80;;;10.73;;
5456;SDS011;2751;49.802;9.944;2022-12-18T02:55:25;19.70;;;10.53;;
5456;SDS011;2751;49.802;9.944;2022-12-18T02:58:04;19.73;;;11.00;;
5456;SDS011;2751;49.802;9.944;2022-12-18T03:00:39;16.73;;;10.57;;
5456;SDS011;2751;49.802;9.944;2022-12-18T03:03:10;16.67;;;10.57;;
5456;SDS011;2751;49.802;9.944;2022-12-18T03:05:43;17.93;;;10.30;;
5456;SDS011;2751;49.802;9.944;2022-12-18T03:08:14;15.87;;;9.00;;
5456;SDS011;2751;49.802;9.944;2022-12-18T03:10:45;16.50;;;10.23;;
5456;SDS011;2751;49.802;9.944;2022-12-18T03:13:19;16.93;;;9.23;;
5456;SDS011;2751;49.802;9.944;2022-12-18T03:15:55;32.20;;;12.83;;
5456;SDS011;2751;49.802;9.944;2022-12-18T03:18:25;20.90;;;11.40;;
5456;SDS011;2751;49.802;9.944;2022-12-18T03:20:59;21.60;;;12.00;;
5456;SDS011;2751;49.802;9.944;2022-12-18T03:23:35;23.97;;;12.67;;
5456;SDS011;2751;49.802;9.944;2022-12-18T03:26:07;22.47;;;12.50;;
5456;SDS011;2751;49.802;9.944;2022-12-18T03:28:39;19.43;;;12.53;;
5456;SDS011;2751;49.802;9.944;2022-12-18T03:31:12;22.43;;;12.57;;
5456;SDS011;2751;49.802;9.944;2022-12-18T03:33:41;21.73;;;13.73;;
5456;SDS011;2751;49.802;9.944;2022-12-18T03:36:13;31.50;;;17.63;;
5456;SDS011;2751;49.802;9.944;2022-12-18T03:38:40;48.90;;;23.40;;
5456;SDS011;2751;49.802;9.944;2022-12-18T03:41:10;22.50;;;9.90;;
5456;SDS011;2751;49.802;9.944;2022-12-18T03:43:45;19.40;;;10.13;;
5456;SDS011;2751;49.802;9.944;2022-12-18T03:46:19;25.97;;;14.43;;
5456;SDS011;2751;49.802;9.944;2022-12-18T03:48:52;38.63;;;22.77;;
5456;SDS011;2751;49.802;9.944;2022-12-18T03:51:26;29.73;;;16.90;;
5456;SDS011;2751;49.802;9.944;2022-12-18T03:54:00;18.77;;;11.30;;
5456;SDS011;2751;49.802;9.944;2022-12-18T03:56:31;22.37;;;11.73;;
5456;SDS011;2751;49.802;9.944;2022-12-18T03:59:03;11.23;;;7.27;;
5456;SDS011;2751;49.802;9.944;2022-12-18T04:01:32;19.20;;;11.90;;
5456;SDS011;2751;49.802;9.944;2022-12-18T04:04:01;21.13;;;12.43;;
5456;SDS011;2751;49.802;9.944;2022-12-18T04:06:30;20.93;;;12.40;;
5456;SDS011;2751;49.802;9.944;2022-12-18T04:08:57;22.60;;;12.63;;
5456;SDS011;2751;49.802;9.944;2022-12-18T04:11:25;18.33;;;12.13;;
5456;SDS011;2751;49.802;9.944;2022-12-18T04:13:56;21.73;;;11.10;;
5456;SDS011;2751;49.802;9.944;2022-12-18T04:16:25;21.07;;;12.30;;
5456;SDS011;2751;49.802;9.944;2022-12-18T04:18:53;18.70;;;11.50;;
5456;SDS011;2751;49.802;9.944;2022-12-18T04:21:20;17.67;;;10.57;;
5456;SDS011;2751;49.802;9.944;2022-12-18T04:23:47;14.43;;;8.17;;
5456;SDS011;2751;49.802;9.944;2022-12-18T04:26:14;18.83;;;9.53;;
5456;SDS011;2751;49.802;9.944;2022-12-18T04:28:41;17.37;;;11.17;;
5456;SDS011;2751;49.802;9.944;2022-12-18T04:31:08;19.03;;;11.37;;
5456;SDS011;2751;49.802;9.944;2022-12-18T04:33:36;15.70;;;9.27;;
5456;SDS011;2751;49.802;9.944;2022-12-18T04:36:03;14.33;;;9.30;;
5456;SDS011;2751;49.802;9.944;2022-12-18T04:38:31;13.10;;;8.30;;
5456;SDS011;2751;49.802;9.944;2022-12-18T04:40:58;16.00;;;10.63;;
5456;SDS011;2751;49.802;9.944;2022-12-18T04:43:25;22.57;;;11.00;;
5456;SDS011;2751;49.802;9.944;2022-12-18T04:45:52;16.67;;;8.47;;
5456;SDS011;2751;49.802;9.944;2022-12-18T04:48:19;13.30;;;7.47;;
5456;SDS011;2751;49.802;9.944;2022-12-18T04:50:48;17.90;;;10.47;;
5456;SDS011;2751;49.802;9.944;2022-12-18T04:53:14;19.87;;;9.23;;
5456;SDS011;2751;49.802;9.944;2022-12-18T04:55:41;15.93;;;9.10;;
5456;SDS011;2751;49.802;9.944;2022-12-18T04:58:08;22.07;;;11.80;;
5456;SDS011;2751;49.802;9.944;2022-12-18T05:00:35;19.23;;;11.40;;
5456;SDS011;2751;49.802;9.944;2022-12-18T05:03:02;21.67;;;10.80;;
5456;SDS011;2751;49.802;9.944;2022-12-18T05:05:29;13.17;;;8.43;;
5456;SDS011;2751;49.802;9.944;2022-12-18T05:07:57;18.97;;;10.33;;
5456;SDS011;2751;49.802;9.944;2022-12-18T05:10:24;23.40;;;11.40;;
5456;SDS011;2751;49.802;9.944;2022-12-18T05:12:51;21.57;;;11.97;;
5456;SDS011;2751;49.802;9.944;2022-12-18T05:15:27;21.17;;;11.10;;
5456;SDS011;2751;49.802;9.944;2022-12-18T05:17:55;18.00;;;11.67;;
5456;SDS011;2751;49.802;9.944;2022-12-18T05:20:22;15.73;;;9.90;;
5456;SDS011;2751;49.802;9.944;2022-12-18T05:22:50;18.50;;;10.40;;
5456;SDS011;2751;49.802;9.944;2022-12-18T05:25:19;21.03;;;9.53;;
5456;SDS011;2751;49.802;9.944;2022-12-18T05:27:46;13.87;;;7.83;;
5456;SDS011;2751;49.802;9.944;2022-12-18T05:30:14;18.33;;;11.40;;
5456;SDS011;2751;49.802;9.944;2022-12-18T05:32:42;16.10;;;8.67;;
5456;SDS011;2751;49.802;9.944;2022-12-18T05:35:09;13.30;;;7.87;;
5456;SDS011;2751;49.802;9.944;2022-12-18T05:37:37;8.80;;;5.83;;
5456;SDS011;2751;49.802;9.944;2022-12-18T05:40:04;7.90;;;5.93;;
5456;SDS011;2751;49.802;9.944;2022-12-18T05:42:33;21.43;;;11.00;;
5456;SDS011;2751;49.802;9.944;2022-12-18T05:45:00;18.43;;;9.50;;
5456;SDS011;2751;49.802;9.944;2022-12-18T05:47:27;13.03;;;7.50;;
5456;SDS011;2751;49.802;9.944;2022-12-18T05:49:54;17.50;;;10.27;;
5456;SDS011;2751;49.802;9.944;2022-12-18T05:52:21;19.73;;;11.43;;
5456;SDS011;2751;49.802;9.944;2022-12-18T05:54:49;14.93;;;10.40;;
5456;SDS011;2751;49.802;9.944;2022-12-18T05:57:16;16.50;;;11.20;;
5456;SDS011;2751;49.802;9.944;2022-12-18T05:59:44;12.70;;;8.60;;
5456;SDS011;2751;49.802;9.944;2022-12-18T06:02:11;14.80;;;8.73;;
5456;SDS011;2751;49.802;9.944;2022-12-18T06:04:38;16.80;;;9.50;;
5456;SDS011;2751;49.802;9.944;2022-12-18T06:07:05;14.70;;;9.10;;
5456;SDS011;2751;49.802;9.944;2022-12-18T06:09:32;20.03;;;10.07;;
5456;SDS011;2751;49.802;9.944;2022-12-18T06:12:00;14.70;;;10.70;;
5456;SDS011;2751;49.802;9.944;2022-12-18T06:14:27;19.27;;;11.20;;
5456;SDS011;2751;49.802;9.944;2022-12-18T06:16:55;16.73;;;9.43;;
5456;SDS011;2751;49.802;9.944;2022-12-18T06:19:22;22.10;;;9.37;;
5456;SDS011;2751;49.802;9.944;2022-12-18T06:21:49;19.00;;;9.70;;
5456;SDS011;2751;49.802;9.944;2022-12-18T06:24:16;15.03;;;6.83;;
5456;SDS011;2751;49.802;9.944;2022-12-18T06:26:43;23.10;;;11.63;;
5456;SDS011;2751;49.802;9.944;2022-12-18T06:29:10;15.50;;;8.77;;
5456;SDS011;2751;49.802;9.944;2022-12-18T06:31:37;23.47;;;11.33;;
5456;SDS011;2751;49.802;9.944;2022-12-18T06:34:05;19.90;;;11.03;;
5456;SDS011;2751;49.802;9.944;2022-12-18T06:36:32;24.03;;;11.80;;
5456;SDS011;2751;49.802;9.944;2022-12-18T06:38:59;19.63;;;9.23;;
5456;SDS011;2751;49.802;9.944;2022-12-18T06:41:26;21.43;;;9.60;;
5456;SDS011;2751;49.802;9.944;2022-12-18T06:43:53;26.63;;;11.63;;
5456;SDS011;2751;49.802;9.944;2022-12-18T06:46:20;21.10;;;11.17;;
5456;SDS011;2751;49.802;9.944;2022-12-18T06:48:47;19.07;;;10.30;;
5456;SDS011;2751;49.802;9.944;2022-12-18T06:51:17;20.00;;;10.00;;
5456;SDS011;2751;49.802;9.944;2022-12-18T06:53:45;24.60;;;11.40;;
5456;SDS011;2751;49.802;9.944;2022-12-18T06:56:12;19.90;;;9.53;;
5456;SDS011;2751;49.802;9.944;2022-12-18T06:58:39;24.17;;;10.50;;
5456;SDS011;2751;49.802;9.944;2022-12-18T07:01:07;10.70;;;6.07;;
5456;SDS011;2751;49.802;9.944;2022-12-18T07:03:35;20.67;;;10.70;;
5456;SDS011;2751;49.802;9.944;2022-12-18T07:06:03;21.03;;;11.43;;
5456;SDS011;2751;49.802;9.944;2022-12-18T07:08:31;27.27;;;11.93;;
5456;SDS011;2751;49.802;9.944;2022-12-18T07:10:58;20.47;;;11.80;;
5456;SDS011;2751;49.802;9.944;2022-12-18T07:13:28;18.83;;;9.80;;
5456;SDS011;2751;49.802;9.944;2022-12-18T07:15:55;21.83;;;10.00;;
5456;SDS011;2751;49.802;9.944;2022-12-18T07:18:29;19.50;;;11.00;;
5456;SDS011;2751;49.802;9.944;2022-12-18T07:20:55;22.13;;;12.37;;
5456;SDS011;2751;49.802;9.944;2022-12-18T07:23:22;20.93;;;11.27;;
5456;SDS011;2751;49.802;9.944;2022-12-18T07:25:51;19.23;;;10.77;;
5456;SDS011;2751;49.802;9.944;2022-12-18T07:28:18;19.87;;;11.10;;
5456;SDS011;2751;49.802;9.944;2022-12-18T07:30:44;21.50;;;12.23;;
5456;SDS011;2751;49.802;9.944;2022-12-18T07:33:11;19.97;;;9.87;;
5456;SDS011;2751;49.802;9.944;2022-12-18T07:35:38;26.77;;;12.00;;
5456;SDS011;2751;49.802;9.944;2022-12-18T07:38:05;19.87;;;10.27;;
5456;SDS011;2751;49.802;9.944;2022-12-18T07:40:32;23.13;;;11.10;;
5456;SDS011;2751;49.802;9.944;2022-12-18T07:43:00;21.37;;;11.60;;
5456;SDS011;2751;49.802;9.944;2022-12-18T07:45:27;22.00;;;11.23;;
5456;SDS011;2751;49.802;9.944;2022-12-18T07:47:54;20.97;;;12.70;;
5456;SDS011;2751;49.802;9.944;2022-12-18T07:50:21;23.87;;;11.67;;
5456;SDS011;2751;49.802;9.944;2022-12-18T07:52:49;23.43;;;12.10;;
5456;SDS011;2751;49.802;9.944;2022-12-18T07:55:16;24.70;;;12.40;;
5456;SDS011;2751;49.802;9.944;2022-12-18T07:57:43;21.13;;;12.43;;
5456;SDS011;2751;49.802;9.944;2022-12-18T08:00:12;19.90;;;9.57;;
5456;SDS011;2751;49.802;9.944;2022-12-18T08:02:41;16.10;;;9.10;;
5456;SDS011;2751;49.802;9.944;2022-12-18T08:05:08;25.37;;;10.43;;
5456;SDS011;2751;49.802;9.944;2022-12-18T08:07:35;21.50;;;12.80;;
5456;SDS011;2751;49.802;9.944;2022-12-18T08:10:02;23.37;;;14.73;;
5456;SDS011;2751;49.802;9.944;2022-12-18T08:12:29;23.20;;;13.70;;
5456;SDS011;2751;49.802;9.944;2022-12-18T08:14:56;22.93;;;13.23;;
5456;SDS011;2751;49.802;9.944;2022-12-18T08:17:24;24.50;;;15.40;;
5456;SDS011;2751;49.802;9.944;2022-12-18T08:19:51;21.63;;;12.00;;
5456;SDS011;2751;49.802;9.944;2022-12-18T08:22:18;22.77;;;12.50;;
5456;SDS011;2751;49.802;9.944;2022-12-18T08:24:45;19.57;;;12.60;;
5456;SDS011;2751;49.802;9.944;2022-12-18T08:27:12;27.73;;;12.20;;
5456;SDS011;2751;49.802;9.944;2022-12-18T08:29:38;24.20;;;11.03;;
5456;SDS011;2751;49.802;9.944;2022-12-18T08:32:05;23.27;;;12.97;;
5456;SDS011;2751;49.802;9.944;2022-12-18T08:34:34;21.43;;;12.03;;
5456;SDS011;2751;49.802;9.944;2022-12-18T08:37:01;23.77;;;12.17;;
5456;SDS011;2751;49.802;9.944;2022-12-18T08:39:28;22.77;;;13.53;;
5456;SDS011;2751;49.802;9.944;2022-12-18T08:41:55;21.10;;;12.50;;
5456;SDS011;2751;49.802;9.944;2022-12-18T08:44:39;22.77;;;12.30;;
5456;SDS011;2751;49.802;9.944;2022-12-18T08:47:06;25.10;;;12.43;;
5456;SDS011;2751;49.802;9.944;2022-12-18T08:49:36;25.40;;;13.07;;
5456;SDS011;2751;49.802;9.944;2022-12-18T08:52:03;21.43;;;11.37;;
5456;SDS011;2751;49.802;9.944;2022-12-18T08:54:30;20.87;;;12.50;;
5456;SDS011;2751;49.802;9.944;2022-12-18T08:56:57;25.03;;;12.53;;
5456;SDS011;2751;49.802;9.944;2022-12-18T08:59:24;27.13;;;13.80;;
5456;SDS011;2751;49.802;9.944;2022-12-18T09:01:52;22.43;;;11.60;;
5456;SDS011;2751;49.802;9.944;2022-12-18T09:04:19;22.40;;;13.23;;
5456;SDS011;2751;49.802;9.944;2022-12-18T09:06:48;24.93;;;12.93;;
5456;SDS011;2751;49.802;9.944;2022-12-18T09:09:15;22.20;;;10.70;;
5456;SDS011;2751;49.802;9.944;2022-12-18T09:11:42;27.80;;;13.83;;
5456;SDS011;2751;49.802;9.944;2022-12-18T09:14:09;19.00;;;10.63;;
5456;SDS011;2751;49.802;9.944;2022-12-18T09:16:36;24.70;;;13.13;;
5456;SDS011;2751;49.802;9.944;2022-12-18T09:19:03;25.80;;;15.30;;
5456;SDS011;2751;49.802;9.944;2022-12-18T09:21:32;25.97;;;12.77;;
5456;SDS011;2751;49.802;9.944;2022-12-18T09:24:01;25.80;;;13.87;;
5456;SDS011;2751;49.802;9.944;2022-12-18T09:26:28;24.77;;;13.10;;
5456;SDS011;2751;49.802;9.944;2022-12-18T09:28:55;25.93;;;12.97;;
5456;SDS011;2751;49.802;9.944;2022-12-18T09:31:22;26.17;;;12.70;;
5456;SDS011;2751;49.802;9.944;2022-12-18T09:33:50;28.13;;;12.77;;
5456;SDS011;2751;49.802;9.944;2022-12-18T09:36:17;21.60;;;12.47;;
5456;SDS011;2751;49.802;9.944;2022-12-18T09:38:45;27.80;;;14.13;;
5456;SDS011;2751;49.802;9.944;2022-12-18T09:41:19;26.70;;;14.47;;
5456;SDS011;2751;49.802;9.944;2022-12-18T09:44:10;25.83;;;14.07;;
5456;SDS011;2751;49.802;9.944;2022-12-18T09:46:43;27.57;;;14.37;;
5456;SDS011;2751;49.802;9.944;2022-12-18T09:49:14;28.50;;;13.60;;
5456;SDS011;2751;49.802;9.944;2022-12-18T09:51:45;31.27;;;15.47;;
5456;SDS011;2751;49.802;9.944;2022-12-18T09:54:16;28.50;;;14.23;;
5456;SDS011;2751;49.802;9.944;2022-12-18T09:56:49;27.20;;;14.10;;
5456;SDS011;2751;49.802;9.944;2022-12-18T09:59:18;30.73;;;14.40;;
5456;SDS011;2751;49.802;9.944;2022-12-18T10:01:49;27.27;;;15.83;;
5456;SDS011;2751;49.802;9.944;2022-12-18T10:04:16;25.63;;;14.07;;
5456;SDS011;2751;49.802;9.944;2022-12-18T10:06:44;24.40;;;12.80;;
5456;SDS011;2751;49.802;9.944;2022-12-18T10:09:18;27.03;;;11.60;;
5456;SDS011;2751;49.802;9.944;2022-12-18T10:11:55;25.30;;;12.20;;
5456;SDS011;2751;49.802;9.944;2022-12-18T10:14:34;26.93;;;15.00;;
5456;SDS011;2751;49.802;9.944;2022-12-18T10:17:12;23.47;;;13.00;;
5456;SDS011;2751;49.802;9.944;2022-12-18T10:19:48;24.80;;;13.30;;
5456;SDS011;2751;49.802;9.944;2022-12-18T10:22:21;29.13;;;13.67;;
5456;SDS011;2751;49.802;9.944;2022-12-18T10:25:03;27.43;;;15.30;;
5456;SDS011;2751;49.802;9.944;2022-12-18T10:27:38;27.03;;;16.07;;
5456;SDS011;2751;49.802;9.944;2022-12-18T10:30:07;27.27;;;13.10;;
5456;SDS011;2751;49.802;9.944;2022-12-18T10:32:39;22.17;;;11.73;;
5456;SDS011;2751;49.802;9.944;2022-12-18T10:35:07;26.80;;;13.70;;
5456;SDS011;2751;49.802;9.944;2022-12-18T10:38:00;28.57;;;16.50;;
5456;SDS011;2751;49.802;9.944;2022-12-18T10:40:50;24.80;;;11.97;;
5456;SDS011;2751;49.802;9.944;2022-12-18T10:43:24;21.60;;;11.73;;
5456;SDS011;2751;49.802;9.944;2022-12-18T10:46:03;28.17;;;15.10;;
5456;SDS011;2751;49.802;9.944;2022-12-18T10:48:39;27.83;;;14.43;;
5456;SDS011;2751;49.802;9.944;2022-12-18T10:51:19;22.43;;;11.83;;
5456;SDS011;2751;49.802;9.944;2022-12-18T10:53:51;23.23;;;12.40;;
5456;SDS011;2751;49.802;9.944;2022-12-18T10:56:20;27.17;;;14.00;;
5456;SDS011;2751;49.802;9.944;2022-12-18T10:58:55;28.00;;;15.33;;
5456;SDS011;2751;49.802;9.944;2022-12-18T11:01:24;25.57;;;13.20;;
5456;SDS011;2751;49.802;9.944;2022-12-18T11:04:02;30.73;;;14.77;;
5456;SDS011;2751;49.802;9.944;2022-12-18T11:06:34;24.63;;;13.90;;
5456;SDS011;2751;49.802;9.944;2022-12-18T11:09:23;25.47;;;14.03;;
5456;SDS011;2751;49.802;9.944;2022-12-18T11:11:52;25.73;;;14.70;;
5456;SDS011;2751;49.802;9.944;2022-12-18T11:14:23;28.37;;;14.73;;
5456;SDS011;2751;49.802;9.944;2022-12-18T11:16:52;25.03;;;12.13;;
5456;SDS011;2751;49.802;9.944;2022-12-18T11:19:21;24.73;;;12.93;;
5456;SDS011;2751;49.802;9.944;2022-12-18T11:21:54;25.27;;;14.50;;
5456;SDS011;2751;49.802;9.944;2022-12-18T11:24:24;24.27;;;13.53;;
5456;SDS011;2751;49.802;9.944;2022-12-18T11:26:54;23.40;;;13.27;;
5456;SDS011;2751;49.802;9.944;2022-12-18T11:29:24;20.47;;;12.70;;
5456;SDS011;2751;49.802;9.944;2022-12-18T11:32:12;29.93;;;13.80;;
5456;SDS011;2751;49.802;9.944;2022-12-18T11:34:58;26.37;;;12.70;;
5456;SDS011;2751;49.802;9.944;2022-12-18T11:37:29;23.13;;;12.50;;
5456;SDS011;2751;49.802;9.944;2022-12-18T11:39:57;22.23;;;11.93;;
5456;SDS011;2751;49.802;9.944;2022-12-18T11:42:30;23.03;;;13.33;;
5456;SDS011;2751;49.802;9.944;2022-12-18T11:45:08;33.37;;;18.77;;
5456;SDS011;2751;49.802;9.944;2022-12-18T11:47:54;25.80;;;13.37;;
5456;SDS011;2751;49.802;9.944;2022-12-18T11:50:28;21.50;;;11.70;;
5456;SDS011;2751;49.802;9.944;2022-12-18T11:53:00;19.77;;;13.57;;
5456;SDS011;2751;49.802;9.944;2022-12-18T11:55:29;20.63;;;10.93;;
5456;SDS011;2751;49.802;9.944;2022-12-18T11:58:03;12.90;;;7.00;;
5456;SDS011;2751;49.802;9.944;2022-12-18T12:00:41;17.77;;;9.60;;
5456;SDS011;2751;49.802;9.944;2022-12-18T12:03:24;16.40;;;8.90;;
5456;SDS011;2751;49.802;9.944;2022-12-18T12:06:08;16.30;;;9.50;;
5456;SDS011;2751;49.802;9.944;2022-12-18T12:08:45;16.40;;;10.80;;
5456;SDS011;2751;49.802;9.944;2022-12-18T12:11:26;14.60;;;8.33;;
5456;SDS011;2751;49.802;9.944;2022-12-18T12:14:06;17.13;;;9.70;;
5456;SDS011;2751;49.802;9.944;2022-12-18T12:16:55;18.73;;;9.50;;
5456;SDS011;2751;49.802;9.944;2022-12-18T12:22:18;17.47;;;9.97;;
5456;SDS011;2751;49.802;9.944;2022-12-18T12:24:56;15.67;;;9.67;;
5456;SDS011;2751;49.802;9.944;2022-12-18T12:27:35;11.33;;;6.50;;
5456;SDS011;2751;49.802;9.944;2022-12-18T12:30:11;15.80;;;8.40;;
5456;SDS011;2751;49.802;9.944;2022-12-18T12:32:49;16.90;;;9.20;;
5456;SDS011;2751;49.802;9.944;2022-12-18T12:35:25;19.17;;;10.20;;
5456;SDS011;2751;49.802;9.944;2022-12-18T12:38:05;16.13;;;9.87;;
5456;SDS011;2751;49.802;9.944;2022-12-18T12:40:37;15.27;;;9.20;;
5456;SDS011;2751;49.802;9.944;2022-12-18T12:43:19;18.63;;;10.90;;
5456;SDS011;2751;49.802;9.944;2022-12-18T12:45:51;16.93;;;9.40;;
5456;SDS011;2751;49.802;9.944;2022-12-18T12:48:27;13.30;;;8.73;;
5456;SDS011;2751;49.802;9.944;2022-12-18T12:51:00;12.57;;;8.13;;
5456;SDS011;2751;49.802;9.944;2022-12-18T12:53:31;15.30;;;8.93;;
5456;SDS011;2751;49.802;9.944;2022-12-18T12:56:02;16.27;;;10.67;;
5456;SDS011;2751;49.802;9.944;2022-12-18T12:58:31;16.50;;;10.00;;
5456;SDS011;2751;49.802;9.944;2022-12-18T13:01:08;16.77;;;10.13;;
5456;SDS011;2751;49.802;9.944;2022-12-18T13:03:45;16.90;;;9.93;;
5456;SDS011;2751;49.802;9.944;2022-12-18T13:06:19;14.30;;;9.03;;
5456;SDS011;2751;49.802;9.944;2022-12-18T13:08:56;13.10;;;7.10;;
5456;SDS011;2751;49.802;9.944;2022-12-18T13:11:29;12.97;;;7.17;;
5456;SDS011;2751;49.802;9.944;2022-12-18T13:14:20;12.27;;;6.17;;
5456;SDS011;2751;49.802;9.944;2022-12-18T13:16:48;14.00;;;8.97;;
5456;SDS011;2751;49.802;9.944;2022-12-18T13:19:22;17.60;;;9.30;;
5456;SDS011;2751;49.802;9.944;2022-12-18T13:21:52;16.30;;;9.63;;
5456;SDS011;2751;49.802;9.944;2022-12-18T13:24:22;16.60;;;9.70;;
5456;SDS011;2751;49.802;9.944;2022-12-18T13:26:51;15.90;;;9.53;;
5456;SDS011;2751;49.802;9.944;2022-12-18T13:37:54;19.33;;;11.17;;
5456;SDS011;2751;49.802;9.944;2022-12-18T13:43:28;16.80;;;9.87;;
5456;SDS011;2751;49.802;9.944;2022-12-18T13:49:00;13.40;;;7.73;;
5456;SDS011;2751;49.802;9.944;2022-12-18T13:51:29;16.20;;;9.30;;
5456;SDS011;2751;49.802;9.944;2022-12-18T13:54:00;15.80;;;9.07;;
5456;SDS011;2751;49.802;9.944;2022-12-18T13:56:29;17.63;;;9.13;;
5456;SDS011;2751;49.802;9.944;2022-12-18T13:59:05;14.77;;;9.40;;
5456;SDS011;2751;49.802;9.944;2022-12-18T14:01:41;14.60;;;9.33;;
5456;SDS011;2751;49.802;9.944;2022-12-18T14:04:10;14.90;;;8.77;;
5456;SDS011;2751;49.802;9.944;2022-12-18T14:06:37;16.67;;;9.50;;
5456;SDS011;2751;49.802;9.944;2022-12-18T14:09:07;19.07;;;9.60;;
5456;SDS011;2751;49.802;9.944;2022-12-18T14:11:39;16.70;;;10.00;;
5456;SDS011;2751;49.802;9.944;2022-12-18T14:14:07;18.33;;;9.67;;
5456;SDS011;2751;49.802;9.944;2022-12-18T14:16:34;14.73;;;8.60;;
5456;SDS011;2751;49.802;9.944;2022-12-18T14:19:02;13.70;;;8.33;;
5456;SDS011;2751;49.802;9.944;2022-12-18T14:21:29;16.63;;;9.63;;
5456;SDS011;2751;49.802;9.944;2022-12-18T14:24:03;16.00;;;9.53;;
5456;SDS011;2751;49.802;9.944;2022-12-18T14:26:32;18.33;;;9.97;;
5456;SDS011;2751;49.802;9.944;2022-12-18T14:28:59;14.47;;;9.07;;
5456;SDS011;2751;49.802;9.944;2022-12-18T14:31:43;17.43;;;8.77;;
5456;SDS011;2751;49.802;9.944;2022-12-18T14:34:14;13.30;;;7.70;;
5456;SDS011;2751;49.802;9.944;2022-12-18T14:36:41;15.83;;;9.13;;
5456;SDS011;2751;49.802;9.944;2022-12-18T14:39:18;14.80;;;9.00;;
5456;SDS011;2751;49.802;9.944;2022-12-18T14:41:46;16.30;;;9.37;;
5456;SDS011;2751;49.802;9.944;2022-12-18T14:44:15;16.77;;;10.20;;
5456;SDS011;2751;49.802;9.944;2022-12-18T14:46:42;19.17;;;9.57;;
5456;SDS011;2751;49.802;9.944;2022-12-18T14:49:17;17.53;;;8.70;;
5456;SDS011;2751;49.802;9.944;2022-12-18T14:51:47;13.47;;;8.67;;
5456;SDS011;2751;49.802;9.944;2022-12-18T14:54:16;18.27;;;10.30;;
5456;SDS011;2751;49.802;9.944;2022-12-18T14:56:45;15.90;;;9.10;;
5456;SDS011;2751;49.802;9.944;2022-12-18T14:59:16;13.40;;;8.50;;
5456;SDS011;2751;49.802;9.944;2022-12-18T15:01:47;16.80;;;10.13;;
5456;SDS011;2751;49.802;9.944;2022-12-18T15:04:25;16.83;;;10.20;;
5456;SDS011;2751;49.802;9.944;2022-12-18T15:07:04;17.73;;;9.93;;
5456;SDS011;2751;49.802;9.944;2022-12-18T15:09:36;17.70;;;9.70;;
5456;SDS011;2751;49.802;9.944;2022-12-18T15:12:05;15.80;;;8.60;;
5456;SDS011;2751;49.802;9.944;2022-12-18T15:14:44;15.07;;;9.60;;
5456;SDS011;2751;49.802;9.944;2022-12-18T15:17:14;18.27;;;10.77;;
5456;SDS011;2751;49.802;9.944;2022-12-18T15:19:44;19.00;;;10.57;;
5456;SDS011;2751;49.802;9.944;2022-12-18T15:22:16;15.47;;;9.40;;
5456;SDS011;2751;49.802;9.944;2022-12-18T15:24:46;14.13;;;8.53;;
5456;SDS011;2751;49.802;9.944;2022-12-18T15:27:25;15.80;;;9.40;;
5456;SDS011;2751;49.802;9.944;2022-12-18T15:32:45;19.10;;;10.47;;
5456;SDS011;2751;49.802;9.944;2022-12-18T15:35:13;17.70;;;10.10;;